Hartford, Connecticut
Traffic Map
Current Weather Conditions
Hartford, Connecticut
Clear Moderate Fog
Clear

Feels Like: 8°
Wind Chill: Ceiling: Unl
Heat Index: Visibility: 0.25mi
Dew Point: Wind: 0mph
Humidity: 93% Direction: ° ()
Pressure: 30.35in Gusts: 0mph
Raw Report DataKHFD 220701Z AUTO 00000KT 1/4SM FG CLR 08/07 A3035 RMK AO2 T00830072 PWINO PNO $
Traffic Incident Summary
Active as of:
Severity:
Category:
InformationThere was an issue retrieving the traffic information for this location. Please try a different location or try again shortly.
Advertisements